Mystic, Missouri
Current Conditions -  °F | °C
As of 6:55 PM on Friday 24 Oct 2014 (Local Time) from KIRK Reporting Station
Clear Clear  
Wind Chill: 65°   Ceiling: Unl
Heat Index: 65°   Visibility: 10mi
Dew Point: 60°   Wind: 7mph
Humidity: 84%   Direction: 190°S
Pressure: 29.94"   Gusts: NA
Location:  40.2455°N, 92.9523°W
Report Text: KIRK 242355Z AUTO 19006KT 10SM CLR 18/16 A2994 RMK AO2 SLP139 T01830156 10222 20167 55005
Loading
Personal Weather Stations






























Interactive Weather Map New forecast layout! Learn more

10-Day Weather Forecast

Advertisements
Track Severe Weather on mobile